Time;durP1;ratioP1;P1;durP2;ratioP2;P2;SDS_P1;SDS_P2;PMS_P1;PMS_P2;Temp;Humidity;BMP_temperature;BMP_pressure;BME280_temperature;BME280_humidity;BME280_pressure;Samples;Min_cycle;Max_cycle;Signal;HPM_P1;HPM_P2
2023/06/15 00:02:03;;;;;;;5.60;4.15;;;;;;;;;;4953250;29;20119;-66
2023/06/15 00:04:29;;;;;;;5.47;4.32;;;;;;;;;;4952817;29;20027;-66
2023/06/15 00:06:55;;;;;;;6.57;4.25;;;;;;;;;;4952756;29;20031;-67
2023/06/15 00:09:21;;;;;;;5.00;4.50;;;;;;;;;;4953010;29;20041;-65
2023/06/15 00:11:47;;;;;;;6.30;4.00;;;;;;;;;;4952567;29;20460;-66
2023/06/15 00:14:13;;;;;;;7.88;4.60;;;;;;;;;;4953130;29;20094;-65
2023/06/15 00:16:41;;;;;;;5.63;4.30;;;;;;;;;;4952535;29;20123;-68
2023/06/15 00:19:08;;;;;;;5.82;4.28;;;;;;;;;;4944375;29;20227;-66
2023/06/15 00:21:40;;;;;;;4.85;4.03;;;;;;;;;;4953020;29;20027;-66
2023/06/15 00:24:06;;;;;;;7.85;4.82;;;;;;;;;;4952698;29;20476;-67
2023/06/15 00:26:32;;;;;;;6.95;4.43;;;;;;;;;;4953286;29;20050;-67
2023/06/15 00:28:58;;;;;;;8.73;4.47;;;;;;;;;;4952108;29;20046;-66
2023/06/15 00:31:24;;;;;;;5.88;4.50;;;;;;;;;;4952962;29;20037;-66
2023/06/15 00:33:51;;;;;;;6.75;4.55;;;;;;;;;;4951900;29;20019;-66
2023/06/15 00:36:17;;;;;;;7.97;4.53;;;;;;;;;;4952374;28;20042;-66
2023/06/15 00:38:43;;;;;;;6.47;4.32;;;;;;;;;;4933782;29;20484;-66
2023/06/15 00:41:10;;;;;;;6.70;4.40;;;;;;;;;;4952028;29;20039;-66
2023/06/15 00:43:36;;;;;;;5.60;4.13;;;;;;;;;;4952769;29;20094;-66
2023/06/15 00:46:05;;;;;;;9.20;4.47;;;;;;;;;;4951835;29;20512;-66
2023/06/15 00:48:31;;;;;;;4.57;4.13;;;;;;;;;;4953214;29;20027;-66
2023/06/15 00:50:57;;;;;;;5.53;3.88;;;;;;;;;;4951632;29;20203;-66
2023/06/15 00:53:24;;;;;;;5.22;3.90;;;;;;;;;;4953007;29;20027;-66
2023/06/15 00:55:50;;;;;;;7.45;4.63;;;;;;;;;;4950919;28;20051;-67
2023/06/15 00:58:17;;;;;;;4.82;4.28;;;;;;;;;;4952832;29;20023;-67
2023/06/15 01:00:48;;;;;;;5.20;4.07;;;;;;;;;;4951749;29;20481;-66
2023/06/15 01:03:15;;;;;;;9.15;4.55;;;;;;;;;;4953524;29;20035;-66
2023/06/15 01:05:44;;;;;;;5.32;4.07;;;;;;;;;;4951068;29;20081;-67
2023/06/15 01:08:11;;;;;;;5.25;4.25;;;;;;;;;;4948364;29;20086;-66
2023/06/15 01:10:38;;;;;;;6.82;4.43;;;;;;;;;;4951598;29;20134;-68
2023/06/15 01:13:04;;;;;;;5.50;4.00;;;;;;;;;;4953051;29;20031;-66
2023/06/15 01:15:30;;;;;;;6.35;3.85;;;;;;;;;;4952786;29;20027;-66
2023/06/15 01:17:59;;;;;;;7.50;4.13;;;;;;;;;;4950427;29;20040;-66
2023/06/15 01:20:27;;;;;;;6.65;4.18;;;;;;;;;;4952555;29;20023;-66
2023/06/15 01:23:01;;;;;;;6.47;4.25;;;;;;;;;;4952308;29;20070;-67
2023/06/15 01:25:33;;;;;;;5.13;4.07;;;;;;;;;;4952307;29;20062;-67
2023/06/15 01:28:04;;;;;;;6.07;4.05;;;;;;;;;;4952432;29;20031;-67
2023/06/15 01:30:34;;;;;;;4.95;3.55;;;;;;;;;;4952779;29;20027;-67
2023/06/15 01:33:00;;;;;;;4.07;3.67;;;;;;;;;;4952125;29;20023;-67
2023/06/15 01:35:26;;;;;;;4.25;3.72;;;;;;;;;;4952466;29;20023;-67
2023/06/15 01:37:52;;;;;;;3.88;3.47;;;;;;;;;;4952168;29;20058;-67
2023/06/15 01:40:18;;;;;;;5.60;4.15;;;;;;;;;;4952391;29;20043;-66
2023/06/15 01:42:45;;;;;;;4.80;3.83;;;;;;;;;;4951848;29;20015;-67
2023/06/15 01:45:12;;;;;;;4.30;3.90;;;;;;;;;;4945910;29;20547;-66
2023/06/15 01:47:39;;;;;;;5.32;3.97;;;;;;;;;;4946706;28;20076;-68
2023/06/15 01:50:06;;;;;;;7.47;4.40;;;;;;;;;;4956382;29;20031;-65
2023/06/15 01:52:32;;;;;;;5.50;4.53;;;;;;;;;;4956021;29;20028;-66
2023/06/15 01:54:58;;;;;;;5.18;4.18;;;;;;;;;;4954174;29;20488;-66
2023/06/15 01:57:24;;;;;;;4.70;3.72;;;;;;;;;;4954933;29;20038;-65
2023/06/15 01:59:54;;;;;;;4.25;3.85;;;;;;;;;;4954529;29;20062;-66
2023/06/15 02:02:20;;;;;;;6.75;4.75;;;;;;;;;;4955731;29;20019;-66
2023/06/15 02:04:46;;;;;;;4.40;4.00;;;;;;;;;;4954623;29;20024;-65
2023/06/15 02:07:12;;;;;;;4.10;3.63;;;;;;;;;;4956120;29;20042;-66
2023/06/15 02:09:38;;;;;;;5.22;3.85;;;;;;;;;;4950846;29;20038;-67
2023/06/15 02:12:04;;;;;;;4.95;4.03;;;;;;;;;;4955373;29;20069;-66
2023/06/15 02:14:30;;;;;;;5.32;4.00;;;;;;;;;;4955023;29;20031;-66
2023/06/15 02:16:56;;;;;;;6.53;3.97;;;;;;;;;;4954482;29;20039;-67
2023/06/15 02:19:22;;;;;;;5.18;4.25;;;;;;;;;;4954990;29;20544;-67
2023/06/15 02:21:51;;;;;;;4.50;3.75;;;;;;;;;;4954399;29;20483;-66
2023/06/15 02:24:17;;;;;;;5.57;4.05;;;;;;;;;;4955075;29;20035;-66
2023/06/15 02:26:44;;;;;;;4.70;3.65;;;;;;;;;;4954757;29;20030;-66
2023/06/15 02:29:10;;;;;;;6.78;4.35;;;;;;;;;;4955408;29;20074;-66
2023/06/15 02:31:37;;;;;;;4.70;4.20;;;;;;;;;;4955755;29;20106;-68
2023/06/15 02:34:03;;;;;;;5.97;3.95;;;;;;;;;;4954824;29;20027;-66
2023/06/15 02:36:30;;;;;;;4.28;3.75;;;;;;;;;;4955414;29;20027;-66
2023/06/15 02:38:56;;;;;;;3.95;3.55;;;;;;;;;;4954373;29;20031;-66
2023/06/15 02:41:22;;;;;;;5.32;4.10;;;;;;;;;;4954770;29;20106;-66
2023/06/15 02:43:48;;;;;;;4.32;3.90;;;;;;;;;;4954001;29;20067;-66
2023/06/15 02:46:14;;;;;;;7.90;3.83;;;;;;;;;;4955186;29;20043;-67
2023/06/15 02:48:41;;;;;;;7.93;4.00;;;;;;;;;;4949648;29;20056;-68
2023/06/15 02:51:07;;;;;;;5.75;4.10;;;;;;;;;;4951822;29;20019;-66
2023/06/15 02:53:33;;;;;;;4.72;4.10;;;;;;;;;;4948435;29;20030;-66
2023/06/15 02:55:59;;;;;;;7.00;4.05;;;;;;;;;;4947715;29;20043;-67
2023/06/15 02:58:26;;;;;;;6.25;4.20;;;;;;;;;;4950009;29;20055;-67
2023/06/15 03:00:53;;;;;;;7.93;4.35;;;;;;;;;;4951908;28;20106;-65
2023/06/15 03:03:27;;;;;;;5.97;4.10;;;;;;;;;;4949266;29;20098;-67
2023/06/15 03:05:53;;;;;;;5.68;3.88;;;;;;;;;;4952608;29;20066;-66
2023/06/15 03:08:20;;;;;;;5.22;4.28;;;;;;;;;;4950987;29;20460;-65
2023/06/15 03:10:46;;;;;;;5.57;3.92;;;;;;;;;;4953944;29;20065;-67
2023/06/15 03:13:12;;;;;;;7.32;4.53;;;;;;;;;;4955160;29;20055;-66
2023/06/15 03:15:38;;;;;;;5.38;4.15;;;;;;;;;;4954004;29;20404;-68
2023/06/15 03:18:05;;;;;;;7.28;4.43;;;;;;;;;;4954846;29;20028;-66
2023/06/15 03:20:32;;;;;;;4.82;3.85;;;;;;;;;;4954473;29;20033;-67
2023/06/15 03:22:59;;;;;;;6.28;3.90;;;;;;;;;;4953829;29;20029;-66
2023/06/15 03:25:26;;;;;;;5.55;4.03;;;;;;;;;;4954254;29;20481;-66
2023/06/15 03:27:59;;;;;;;5.75;3.95;;;;;;;;;;4954005;29;20090;-65
2023/06/15 03:30:25;;;;;;;6.22;4.25;;;;;;;;;;4953899;28;20028;-66
2023/06/15 03:32:53;;;;;;;8.68;4.10;;;;;;;;;;4954139;29;20166;-66
2023/06/15 03:35:19;;;;;;;7.03;4.32;;;;;;;;;;4954420;29;20038;-67
2023/06/15 03:37:45;;;;;;;5.57;3.58;;;;;;;;;;4953606;29;20027;-67
2023/06/15 03:40:11;;;;;;;5.00;4.45;;;;;;;;;;4953418;29;20436;-66
2023/06/15 03:42:37;;;;;;;6.70;4.18;;;;;;;;;;4953735;29;20409;-68
2023/06/15 03:45:04;;;;;;;6.75;4.43;;;;;;;;;;4948673;29;20023;-66
2023/06/15 03:47:32;;;;;;;6.07;4.10;;;;;;;;;;4954068;29;20171;-66
2023/06/15 03:49:58;;;;;;;6.68;5.03;;;;;;;;;;4952377;29;20066;-66
2023/06/15 03:52:24;;;;;;;5.70;3.70;;;;;;;;;;4946218;29;20389;-65
2023/06/15 03:54:50;;;;;;;4.88;3.83;;;;;;;;;;4952421;29;20500;-66
2023/06/15 03:57:16;;;;;;;6.78;4.10;;;;;;;;;;4953435;29;20032;-66
2023/06/15 03:59:42;;;;;;;5.28;4.05;;;;;;;;;;4952272;29;20031;-66
2023/06/15 04:02:08;;;;;;;6.43;3.83;;;;;;;;;;4953833;29;20488;-66
2023/06/15 04:04:34;;;;;;;8.20;3.95;;;;;;;;;;4953135;29;20081;-66
2023/06/15 04:07:00;;;;;;;5.70;3.83;;;;;;;;;;4953153;29;20981;-66
2023/06/15 04:09:26;;;;;;;4.25;3.83;;;;;;;;;;4952764;29;20035;-66
2023/06/15 04:11:52;;;;;;;7.93;4.90;;;;;;;;;;4952796;28;20058;-67
2023/06/15 04:14:18;;;;;;;4.90;3.85;;;;;;;;;;4952730;29;20031;-67
2023/06/15 04:16:45;;;;;;;4.28;3.85;;;;;;;;;;4952389;29;20104;-67
2023/06/15 04:19:11;;;;;;;4.82;3.90;;;;;;;;;;4947355;29;20039;-66
2023/06/15 04:21:37;;;;;;;4.85;4.32;;;;;;;;;;4952734;29;20134;-68
2023/06/15 04:24:03;;;;;;;5.20;3.97;;;;;;;;;;4952075;29;20042;-66
2023/06/15 04:26:29;;;;;;;6.22;4.00;;;;;;;;;;4953145;29;20061;-67
2023/06/15 04:28:59;;;;;;;4.88;3.92;;;;;;;;;;4952168;29;20039;-67
2023/06/15 04:31:25;;;;;;;6.83;4.47;;;;;;;;;;4952865;29;20023;-66
2023/06/15 04:33:52;;;;;;;4.85;4.35;;;;;;;;;;4952252;29;20063;-66
2023/06/15 04:36:18;;;;;;;7.68;4.38;;;;;;;;;;4953220;29;20031;-67
2023/06/15 04:38:46;;;;;;;6.60;4.40;;;;;;;;;;4951901;29;20027;-67
2023/06/15 04:41:12;;;;;;;5.65;4.45;;;;;;;;;;4953171;29;20425;-67
2023/06/15 04:43:38;;;;;;;6.78;4.93;;;;;;;;;;4952437;29;20039;-68
2023/06/15 04:46:04;;;;;;;11.85;5.47;;;;;;;;;;4950448;29;20070;-66
2023/06/15 04:48:32;;;;;;;6.80;4.85;;;;;;;;;;4953222;29;20102;-66
2023/06/15 04:50:59;;;;;;;8.18;4.35;;;;;;;;;;4950964;29;20588;-66
2023/06/15 04:53:25;;;;;;;5.38;4.53;;;;;;;;;;4952943;29;20476;-66
2023/06/15 04:55:51;;;;;;;6.68;4.25;;;;;;;;;;4951116;29;20487;-66
2023/06/15 04:58:18;;;;;;;5.65;4.47;;;;;;;;;;4952879;29;20036;-67
2023/06/15 05:00:44;;;;;;;7.75;4.90;;;;;;;;;;4951267;29;20432;-66
2023/06/15 05:03:11;;;;;;;5.20;4.35;;;;;;;;;;4951656;29;20027;-66
2023/06/15 05:05:37;;;;;;;8.25;5.13;;;;;;;;;;4948790;29;20047;-67
2023/06/15 05:08:04;;;;;;;11.02;5.10;;;;;;;;;;4952866;29;20026;-67
2023/06/15 05:10:30;;;;;;;7.95;5.07;;;;;;;;;;4950473;29;20062;-66
2023/06/15 05:12:58;;;;;;;8.77;5.30;;;;;;;;;;4943509;29;20539;-66
2023/06/15 05:15:24;;;;;;;6.63;4.60;;;;;;;;;;4950930;29;20027;-67
2023/06/15 05:17:50;;;;;;;6.47;4.70;;;;;;;;;;4952470;29;20038;-65
2023/06/15 05:20:16;;;;;;;5.65;4.10;;;;;;;;;;4942822;29;20038;-69
2023/06/15 05:22:42;;;;;;;7.03;4.90;;;;;;;;;;4949536;28;20178;-68
2023/06/15 05:25:08;;;;;;;8.18;4.97;;;;;;;;;;4952499;29;20110;-66
2023/06/15 05:27:36;;;;;;;5.35;4.60;;;;;;;;;;4957010;29;20059;-66
2023/06/15 05:30:03;;;;;;;8.20;5.10;;;;;;;;;;4955732;29;20019;-67
2023/06/15 05:32:29;;;;;;;5.60;4.63;;;;;;;;;;4957185;29;20118;-66
2023/06/15 05:34:55;;;;;;;7.97;4.50;;;;;;;;;;4955402;29;20084;-66
2023/06/15 05:37:21;;;;;;;5.88;4.90;;;;;;;;;;4956592;29;20038;-66
2023/06/15 05:39:47;;;;;;;5.95;5.25;;;;;;;;;;4954703;29;20035;-67
2023/06/15 05:42:13;;;;;;;9.05;4.55;;;;;;;;;;4953344;29;20030;-65
2023/06/15 05:44:39;;;;;;;5.60;4.50;;;;;;;;;;4955249;29;20031;-75
2023/06/15 05:47:05;;;;;;;6.15;4.55;;;;;;;;;;4956307;29;20042;-69
2023/06/15 05:49:31;;;;;;;12.18;4.30;;;;;;;;;;4954539;29;20039;-65
2023/06/15 05:51:57;;;;;;;9.23;4.28;;;;;;;;;;4949651;29;20215;-64
2023/06/15 05:54:23;;;;;;;5.63;3.97;;;;;;;;;;4955413;28;20083;-66
2023/06/15 05:56:50;;;;;;;7.13;4.82;;;;;;;;;;4953395;29;20043;-65
2023/06/15 05:59:16;;;;;;;8.52;4.38;;;;;;;;;;4955832;29;20031;-65
2023/06/15 06:01:42;;;;;;;8.85;4.30;;;;;;;;;;4950692;29;20095;-66
2023/06/15 06:04:08;;;;;;;8.63;4.25;;;;;;;;;;4952125;29;20476;-65
2023/06/15 06:06:34;;;;;;;7.47;3.95;;;;;;;;;;4945262;29;20035;-66
2023/06/15 06:09:00;;;;;;;9.90;5.00;;;;;;;;;;4951312;29;20034;-64
2023/06/15 06:11:27;;;;;;;9.60;4.40;;;;;;;;;;4955815;29;20027;-62
2023/06/15 06:13:53;;;;;;;6.80;5.25;;;;;;;;;;4952747;29;20066;-61
2023/06/15 06:16:20;;;;;;;5.75;4.60;;;;;;;;;;4952851;29;20082;-63
2023/06/15 06:18:46;;;;;;;5.15;3.90;;;;;;;;;;4953941;29;20507;-63
2023/06/15 06:21:12;;;;;;;6.82;4.38;;;;;;;;;;4955402;29;20035;-62
2023/06/15 06:23:39;;;;;;;6.47;4.40;;;;;;;;;;4954918;29;20958;-63
2023/06/15 06:26:05;;;;;;;6.65;4.20;;;;;;;;;;4953976;29;20380;-62
2023/06/15 06:28:31;;;;;;;6.78;4.93;;;;;;;;;;4955440;29;20154;-61
2023/06/15 06:30:57;;;;;;;7.32;4.30;;;;;;;;;;4953884;29;20237;-62
2023/06/15 06:33:23;;;;;;;4.50;4.10;;;;;;;;;;4953780;29;20131;-62
2023/06/15 06:35:49;;;;;;;6.53;4.53;;;;;;;;;;4953185;28;20078;-63
2023/06/15 06:38:15;;;;;;;8.32;3.67;;;;;;;;;;4954856;29;20381;-62
2023/06/15 06:40:41;;;;;;;9.00;4.45;;;;;;;;;;4951154;29;20111;-63
2023/06/15 06:43:07;;;;;;;6.90;4.07;;;;;;;;;;4955124;29;20480;-63
2023/06/15 06:45:33;;;;;;;9.65;4.13;;;;;;;;;;4936415;29;20027;-62
2023/06/15 06:47:59;;;;;;;6.95;4.00;;;;;;;;;;4954115;29;20031;-63
2023/06/15 06:50:25;;;;;;;11.15;5.13;;;;;;;;;;4953536;29;20068;-63
2023/06/15 06:52:51;;;;;;;7.00;4.40;;;;;;;;;;4953952;29;20062;-62
2023/06/15 06:55:16;;;;;;;10.10;5.07;;;;;;;;;;4953854;29;20047;-63
2023/06/15 06:57:42;;;;;;;9.18;4.85;;;;;;;;;;4953743;29;20382;-62
2023/06/15 07:00:10;;;;;;;14.63;4.63;;;;;;;;;;4951424;29;20043;-63
2023/06/15 07:02:36;;;;;;;9.02;4.68;;;;;;;;;;4954207;29;20032;-62
2023/06/15 07:05:02;;;;;;;5.82;4.45;;;;;;;;;;4953457;29;20023;-62
2023/06/15 07:07:28;;;;;;;8.63;4.85;;;;;;;;;;4953926;29;20403;-62
2023/06/15 07:09:54;;;;;;;7.13;4.38;;;;;;;;;;4953773;29;20019;-62
2023/06/15 07:12:20;;;;;;;13.38;4.45;;;;;;;;;;4954301;29;20380;-62
2023/06/15 07:14:46;;;;;;;7.90;4.25;;;;;;;;;;4953723;29;20031;-62
2023/06/15 07:17:12;;;;;;;6.80;4.10;;;;;;;;;;4954097;29;20035;-63
2023/06/15 07:19:38;;;;;;;8.77;4.60;;;20.30;98.60;;;;;;4947250;29;20039;-64
2023/06/15 07:22:04;;;;;;;7.75;4.55;;;20.40;98.60;;;;;;4954153;29;20539;-63
2023/06/15 07:24:29;;;;;;;7.60;4.18;;;20.40;98.80;;;;;;4954346;29;20037;-63
2023/06/15 07:26:56;;;;;;;16.95;4.55;;;20.50;98.80;;;;;;4953827;29;20070;-62
2023/06/15 07:29:22;;;;;;;6.97;4.80;;;20.50;98.70;;;;;;4952391;29;20031;-62
2023/06/15 07:31:47;;;;;;;4.97;3.60;;;20.70;99.00;;;;;;4953891;29;20034;-61
2023/06/15 07:34:13;;;;;;;7.18;4.22;;;20.80;98.90;;;;;;4936694;29;20543;-62
2023/06/15 07:36:39;;;;;;;6.18;4.35;;;20.80;92.70;;;;;;4953664;29;20030;-63
2023/06/15 07:39:04;;;;;;;6.90;4.65;;;20.80;92.70;;;;;;4953889;29;20031;-62
2023/06/15 07:41:30;;;;;;;6.25;4.32;;;20.90;91.90;;;;;;4954160;29;20752;-62
2023/06/15 07:43:56;;;;;;;7.82;4.45;;;20.90;91.70;;;;;;4951100;29;20059;-63
2023/06/15 07:46:21;;;;;;;6.80;4.00;;;20.90;91.40;;;;;;4952909;28;20464;-63
2023/06/15 07:48:47;;;;;;;7.25;3.63;;;20.90;92.50;;;;;;4952365;29;20038;-63
2023/06/15 07:51:12;;;;;;;8.73;4.75;;;21.00;92.80;;;;;;4952442;29;20094;-63
2023/06/15 07:53:39;;;;;;;6.15;4.35;;;21.10;92.20;;;;;;4949821;29;20031;-64
2023/06/15 07:56:05;;;;;;;7.60;4.88;;;;;;;;;;4952217;29;20098;-62
2023/06/15 07:58:31;;;;;;;9.57;4.85;;;;;;;;;;4953084;29;20100;-62
2023/06/15 08:00:57;;;;;;;8.15;4.28;;;;;;;;;;4952522;29;20019;-65
2023/06/15 08:03:23;;;;;;;11.73;4.28;;;;;;;;;;4953792;29;20106;-65
2023/06/15 08:05:49;;;;;;;4.63;4.00;;;;;;;;;;4952917;29;20190;-64
2023/06/15 08:08:15;;;;;;;10.38;4.38;;;;;;;;;;4953844;29;20122;-64
2023/06/15 08:10:41;;;;;;;6.90;4.43;;;;;;;;;;4952495;29;20084;-66
2023/06/15 08:13:07;;;;;;;5.25;4.40;;;;;;;;;;4954055;29;20096;-64
2023/06/15 08:15:33;;;;;;;9.10;4.70;;;;;;;;;;4953480;29;20023;-64
2023/06/15 08:18:00;;;;;;;9.68;5.05;;;;;;;;;;4952971;29;20190;-65
2023/06/15 08:20:26;;;;;;;8.32;4.30;;;;;;;;;;4952907;29;20031;-64
2023/06/15 08:22:52;;;;;;;16.45;4.78;;;;;;;;;;4953024;29;20020;-64
2023/06/15 08:25:18;;;;;;;5.30;3.85;;;22.80;98.40;;;;;;4953048;29;20472;-64
2023/06/15 08:27:45;;;;;;;7.50;5.10;;;;;;;;;;4946745;29;20090;-65
2023/06/15 08:30:11;;;;;;;14.23;4.45;;;;;;;;;;4950125;29;20042;-64
2023/06/15 08:32:38;;;;;;;8.75;4.22;;;;;;;;;;4953116;29;20027;-65
2023/06/15 08:35:04;;;;;;;8.15;3.83;;;22.40;98.30;;;;;;4952285;29;20035;-64
2023/06/15 08:37:31;;;;;;;7.80;4.07;;;;;;;;;;4953476;29;20045;-65
2023/06/15 08:39:56;;;;;;;7.30;4.20;;;22.60;98.20;;;;;;4952171;29;20039;-65
2023/06/15 08:42:25;;;;;;;7.10;4.50;;;22.70;97.60;;;;;;4953424;29;20067;-64
2023/06/15 08:44:52;;;;;;;7.55;4.35;;;22.80;97.20;;;;;;4951948;29;20461;-65
2023/06/15 08:47:18;;;;;;;7.35;5.05;;;23.00;93.60;;;;;;4931181;29;20046;-65
2023/06/15 08:49:47;;;;;;;14.15;4.15;;;;;;;;;;4951786;29;20032;-65
2023/06/15 08:52:16;;;;;;;5.63;4.78;;;;;;;;;;4953361;29;20027;-65
2023/06/15 08:54:44;;;;;;;8.88;4.20;;;;;;;;;;4940914;29;20115;-65
2023/06/15 08:57:11;;;;;;;16.15;4.47;;;;;;;;;;4952293;28;20031;-65
2023/06/15 08:59:38;;;;;;;7.03;3.95;;;;;;;;;;4951159;29;20086;-65
2023/06/15 09:02:07;;;;;;;9.02;4.68;;;;;;;;;;4952062;29;20111;-64
2023/06/15 09:04:36;;;;;;;9.43;4.10;;;;;;;;;;4952240;29;20039;-64
2023/06/15 09:07:03;;;;;;;5.72;4.25;;;;;;;;;;4934988;29;20039;-65
2023/06/15 09:09:30;;;;;;;4.78;4.15;;;;;;;;;;4952538;29;20031;-65
2023/06/15 09:11:57;;;;;;;6.95;4.10;;;;;;;;;;4951950;29;20369;-65
2023/06/15 09:14:28;;;;;;;6.40;3.95;;;;;;;;;;4944728;29;20539;-65
2023/06/15 09:16:55;;;;;;;;;;;;;;;;;;4951309;29;20035;-65
2023/06/15 09:19:28;;;;;;;7.75;4.20;;;;;;;;;;4949952;29;19960;-65
2023/06/15 09:21:58;;;;;;;6.07;3.97;;;;;;;;;;4951951;29;20392;-65
2023/06/15 09:24:27;;;;;;;6.50;3.93;;;;;;;;;;4951993;29;20476;-65
2023/06/15 09:27:17;;;;;;;4.03;3.70;;;;;;;;;;4952231;29;20636;-65
2023/06/15 09:30:07;;;;;;;4.28;3.88;;;;;;;;;;4950763;29;20031;-65
2023/06/15 09:32:35;;;;;;;4.70;3.75;;;;;;;;;;4952876;29;20015;-65
2023/06/15 09:35:03;;;;;;;8.35;3.85;;;;;;;;;;4951121;29;20535;-64
2023/06/15 09:37:37;;;;;;;4.20;3.58;;;;;;;;;;4951985;29;20031;-64
2023/06/15 09:40:10;;;;;;;4.72;3.55;;;;;;;;;;4950626;29;20031;-63
2023/06/15 09:42:39;;;;;;;7.07;3.60;;;;;;;;;;4951803;29;20035;-64
2023/06/15 09:45:08;;;;;;;6.35;3.75;;;;;;;;;;4948689;29;20059;-67
2023/06/15 09:47:37;;;;;;;3.93;3.47;;;;;;;;;;4951326;29;20039;-69
2023/06/15 09:50:08;;;;;;;6.65;3.60;;;;;;;;;;4941020;29;20278;-71
2023/06/15 09:52:36;;;;;;;23.40;4.18;;;;;;;;;;4950860;29;20518;-70
2023/06/15 09:55:07;;;;;;;10.32;3.90;;;;;;;;;;4950032;29;20496;-71
2023/06/15 09:57:36;;;;;;;5.05;3.83;;;;;;;;;;4952219;29;20500;-70
2023/06/15 10:00:06;;;;;;;4.45;3.50;;;;;;;;;;4950856;29;20031;-70
2023/06/15 10:02:32;;;;;;;4.05;3.40;;;;;;;;;;4951763;29;20395;-70
2023/06/15 10:04:58;;;;;;;6.07;3.80;;;25.00;95.90;;;;;;4951256;29;20027;-70
2023/06/15 10:07:24;;;;;;;6.13;3.22;;;25.40;83.20;;;;;;4952265;29;20031;-70
2023/06/15 10:09:52;;;;;;;4.90;3.30;;;;;;;;;;4952320;28;20028;-63
2023/06/15 10:12:23;;;;;;;6.18;3.60;;;;;;;;;;4955445;29;20054;-64
2023/06/15 10:15:20;;;;;;;6.10;3.10;;;25.90;64.40;;;;;;4954306;29;20494;-64
2023/06/15 10:17:53;;;;;;;6.55;3.05;;;26.10;63.80;;;;;;4954248;29;20099;-65
2023/06/15 10:20:26;;;;;;;3.67;2.78;;;25.90;61.50;;;;;;4953341;29;20035;-64
2023/06/15 10:23:04;;;;;;;17.00;3.95;;;25.70;62.10;;;;;;4954523;29;20125;-64
2023/06/15 10:25:32;;;;;;;8.30;3.25;;;25.70;62.80;;;;;;4952652;29;20039;-64
2023/06/15 10:27:59;;;;;;;3.92;2.97;;;25.90;62.10;;;;;;4954421;29;20232;-64
2023/06/15 10:30:55;;;;;;;4.35;2.90;;;26.20;61.40;;;;;;4951018;29;20031;-63
2023/06/15 10:33:32;;;;;;;6.50;3.45;;;;;;;;;;4955286;29;20071;-63
2023/06/15 10:36:20;;;;;;;8.88;3.10;;;26.80;61.60;;;;;;4952584;29;20091;-64
2023/06/15 10:38:56;;;;;;;3.38;3.05;;;27.00;60.80;;;;;;4949179;29;20041;-68
2023/06/15 10:41:24;;;;;;;4.60;3.25;;;27.20;60.50;;;;;;4952568;29;20023;-68
2023/06/15 10:44:00;;;;;;;5.55;3.38;;;27.30;62.20;;;;;;4953787;29;20023;-71
2023/06/15 10:46:28;;;;;;;4.53;3.20;;;27.20;60.80;;;;;;4953255;29;20054;-71
2023/06/15 10:48:54;;;;;;;3.50;3.20;;;26.70;61.70;;;;;;4949955;29;20027;-69
2023/06/15 10:51:29;;;;;;;4.13;3.55;;;26.30;62.10;;;;;;4931259;29;20031;-72
2023/06/15 10:53:58;;;;;;;4.20;3.30;;;25.90;62.10;;;;;;4948552;29;20039;-65
2023/06/15 10:56:29;;;;;;;4.22;2.97;;;25.70;62.00;;;;;;4953177;29;20046;-65
2023/06/15 10:59:04;;;;;;;4.60;3.58;;;25.60;62.30;;;;;;4953331;29;20039;-63
2023/06/15 11:01:44;;;;;;;4.57;3.13;;;25.60;62.00;;;;;;4949655;29;20045;-63
2023/06/15 11:04:30;;;;;;;3.80;3.33;;;26.00;63.30;;;;;;4952160;29;20159;-63
2023/06/15 11:06:57;;;;;;;4.45;3.20;;;;;;;;;;4952289;29;20065;-64
2023/06/15 11:09:38;;;;;;;8.45;3.92;;;;;;;;;;4954116;29;20186;-64
2023/06/15 11:12:35;;;;;;;5.95;3.50;;;27.60;90.40;;;;;;4950589;29;20020;-64
2023/06/15 11:15:06;;;;;;;4.40;3.25;;;28.00;85.60;;;;;;4953702;29;20477;-64
2023/06/15 11:17:53;;;;;;;8.98;3.63;;;27.30;88.10;;;;;;4954653;29;20047;-63
2023/06/15 11:20:44;;;;;;;3.60;3.28;;;;;;;;;;4952044;28;20046;-63
2023/06/15 11:23:18;;;;;;;9.35;2.90;;;;;;;;;;4955034;29;20093;-64
2023/06/15 11:25:51;;;;;;;3.35;3.05;;;;;;;;;;4954560;29;20031;-64
2023/06/15 11:28:25;;;;;;;4.10;2.72;;;;;;;;;;4955146;29;20061;-65
2023/06/15 11:30:52;;;;;;;4.65;3.10;;;;;;;;;;4948131;29;20102;-64
2023/06/15 11:33:30;;;;;;;4.75;3.25;;;;;;;;;;4954524;29;20032;-64
2023/06/15 11:35:56;;;;;;;3.50;2.65;;;;;;;;;;4953686;29;20038;-64
2023/06/15 11:38:29;;;;;;;11.20;3.10;;;;;;;;;;4954686;29;20054;-63
2023/06/15 11:41:07;;;;;;;4.97;3.53;;;;;;;;;;4944609;29;20541;-64
2023/06/15 11:43:48;;;;;;;10.25;3.42;;;;;;;;;;4951368;29;20481;-64
2023/06/15 11:46:17;;;;;;;4.88;2.83;;;;;;;;;;4950449;29;20038;-64
2023/06/15 11:48:44;;;;;;;4.33;3.40;;;;;;;;;;4947157;29;20392;-66
2023/06/15 11:51:11;;;;;;;2.83;2.63;;;;;;;;;;4954313;29;20026;-64
2023/06/15 11:53:38;;;;;;;2.78;2.58;;;;;;;;;;4953139;29;20027;-67
2023/06/15 11:56:12;;;;;;;4.95;3.03;;;;;;;;;;4952101;28;20043;-65
2023/06/15 11:58:39;;;;;;;3.30;2.95;;;;;;;;;;4953413;29;20070;-66
2023/06/15 12:01:11;;;;;;;4.18;3.03;;;;;;;;;;4952769;29;20023;-64
2023/06/15 12:03:43;;;;;;;3.53;2.75;;;;;;;;;;4952999;29;20104;-66
2023/06/15 12:06:09;;;;;;;3.80;3.00;;;;;;;;;;4946617;29;20027;-63
2023/06/15 12:08:41;;;;;;;7.63;3.05;;;;;;;;;;4952503;29;20488;-64
2023/06/15 12:11:07;;;;;;;7.50;3.42;;;;;;;;;;4953214;29;20039;-64
2023/06/15 12:13:39;;;;;;;5.22;3.90;;;;;;;;;;4953358;29;20090;-64
2023/06/15 12:16:08;;;;;;;3.55;3.15;;;;;;;;;;4952245;29;20077;-64
2023/06/15 12:18:35;;;;;;;4.30;3.17;;;;;;;;;;4952833;29;20031;-64
2023/06/15 12:21:05;;;;;;;3.80;3.10;;;;;;;;;;4951572;29;20186;-65
2023/06/15 12:23:35;;;;;;;3.53;3.22;;;;;;;;;;4951952;29;20047;-65
2023/06/15 12:26:02;;;;;;;5.20;2.85;;;;;;;;;;4946613;29;20043;-64
2023/06/15 12:28:32;;;;;;;4.10;3.40;;;;;;;;;;4953068;29;20152;-64
2023/06/15 12:31:06;;;;;;;5.57;3.33;;;;;;;;;;4951603;29;20030;-64
2023/06/15 12:33:32;;;;;;;4.55;2.80;;;;;;;;;;4953379;28;20440;-63
2023/06/15 12:36:21;;;;;;;3.33;3.03;;;;;;;;;;4950012;29;20039;-66
2023/06/15 12:38:49;;;;;;;7.40;3.38;;;;;;;;;;4945571;29;20500;-64
2023/06/15 12:41:21;;;;;;;3.50;3.20;;;;;;;;;;4950162;29;20473;-63
2023/06/15 12:43:47;;;;;;;3.42;3.03;;;;;;;;;;4948475;29;20106;-65
2023/06/15 12:46:19;;;;;;;4.32;3.10;;;;;;;;;;4952411;29;20126;-65
2023/06/15 12:48:45;;;;;;;4.28;3.10;;;;;;;;;;4949775;29;20035;-64
2023/06/15 12:51:12;;;;;;;7.35;3.20;;;;;;;;;;4952803;29;20028;-64
2023/06/15 12:53:38;;;;;;;3.50;3.20;;;;;;;;;;4952338;29;20508;-65
2023/06/15 12:56:07;;;;;;;5.18;3.42;;;;;;;;;;4951231;29;20079;-64
2023/06/15 12:58:36;;;;;;;6.25;3.33;;;;;;;;;;4951557;29;20071;-64
2023/06/15 13:01:07;;;;;;;4.57;3.22;;;;;;;;;;4950906;29;20174;-63
2023/06/15 13:03:36;;;;;;;4.35;3.20;;;;;;;;;;4950284;29;20404;-63
2023/06/15 13:06:06;;;;;;;3.72;3.00;;;;;;;;;;4951615;29;20495;-65
2023/06/15 13:08:40;;;;;;;4.55;3.10;;;;;;;;;;4944927;29;20039;-64
2023/06/15 13:11:09;;;;;;;3.10;2.90;;;;;;;;;;4951911;29;20039;-64
2023/06/15 13:13:37;;;;;;;6.22;3.50;;;;;;;;;;4951741;29;20031;-64
2023/06/15 13:16:06;;;;;;;4.88;3.30;;;;;;;;;;4950603;29;20034;-63
2023/06/15 13:18:42;;;;;;;4.20;2.90;;;;;;;;;;4950840;29;20046;-64
2023/06/15 13:21:11;;;;;;;3.60;3.00;;;;;;;;;;4952671;29;20027;-64
2023/06/15 13:23:43;;;;;;;3.60;3.30;;;;;;;;;;4952854;29;20062;-66
2023/06/15 13:26:11;;;;;;;7.18;3.25;;;;;;;;;;4952452;29;20046;-64
2023/06/15 13:28:38;;;;;;;4.63;3.28;;;;;;;;;;4950950;29;20035;-66
2023/06/15 13:31:04;;;;;;;3.60;3.20;;;;;;;;;;4949032;29;20035;-64
2023/06/15 13:33:33;;;;;;;3.50;3.20;;;;;;;;;;4951369;29;20577;-64
2023/06/15 13:36:02;;;;;;;8.07;3.05;;;;;;;;;;4952625;29;20020;-64
2023/06/15 13:38:28;;;;;;;4.72;3.03;;;;;;;;;;4952885;29;20070;-64
2023/06/15 13:40:54;;;;;;;5.10;2.97;;;;;;;;;;4951017;29;20398;-63
2023/06/15 13:43:23;;;;;;;5.90;3.15;;;;;;;;;;4952604;28;20035;-64
2023/06/15 13:45:52;;;;;;;3.65;3.35;;;;;;;;;;4955198;29;20556;-65
2023/06/15 13:48:18;;;;;;;5.07;3.10;;;;;;;;;;4955364;29;20047;-63
2023/06/15 13:50:44;;;;;;;3.70;3.22;;;;;;;;;;4951009;29;20384;-64
2023/06/15 13:53:13;;;;;;;3.45;2.92;;;;;;;;;;4954086;29;20122;-64
2023/06/15 13:55:39;;;;;;;6.32;3.28;;;;;;;;;;4950545;29;20082;-67
2023/06/15 13:58:08;;;;;;;5.90;3.15;;;;;;;;;;4954795;29;20070;-64
2023/06/15 14:00:34;;;;;;;5.45;2.90;;;;;;;;;;4956094;29;20174;-65
2023/06/15 14:03:04;;;;;;;5.93;3.30;;;;;;;;;;4954693;29;20019;-64
2023/06/15 14:05:31;;;;;;;7.47;3.58;;;;;;;;;;4955578;29;20094;-64
2023/06/15 14:08:02;;;;;;;5.18;3.47;;;;;;;;;;4952369;29;20135;-65
2023/06/15 14:10:29;;;;;;;3.20;2.65;;;;;;;;;;4952320;29;20046;-65
2023/06/15 14:13:00;;;;;;;4.20;2.72;;;;;;;;;;4949417;29;20058;-63
2023/06/15 14:15:26;;;;;;;5.53;2.63;;;;;;;;;;4955436;29;20039;-64
2023/06/15 14:17:54;;;;;;;2.92;2.60;;;;;;;;;;4956052;29;20031;-64
2023/06/15 14:20:31;;;;;;;3.05;2.75;;;;;;;;;;4956912;29;20039;-65
2023/06/15 14:23:00;;;;;;;2.70;2.50;;;;;;;;;;4956040;29;20036;-64
2023/06/15 14:25:26;;;;;;;3.17;2.88;;;;;;;;;;4956273;29;20023;-64
2023/06/15 14:27:52;;;;;;;3.50;3.20;;;;;;;;;;4955436;29;20035;-64
2023/06/15 14:30:21;;;;;;;3.35;2.63;;;;;;;;;;4952207;29;20035;-64
2023/06/15 14:32:56;;;;;;;3.00;2.80;;;;;;;;;;4951913;29;20039;-64